Time;durP1;ratioP1;P1;durP2;ratioP2;P2;SDS_P1;SDS_P2;PMS_P1;PMS_P2;Temp;Humidity;BMP_temperature;BMP_pressure;BME280_temperature;BME280_humidity;BME280_pressure;Samples;Min_cycle;Max_cycle;Signal;HPM_P1;HPM_P2
2020/12/09 00:00:11;;;;;;;74.03;44.40;;;;;;;16.80;32.96;94301.44;5077385;28;20053;-55
2020/12/09 00:02:39;;;;;;;70.32;42.85;;;;;;;16.93;32.77;94308.28;5077264;28;20040;-57
2020/12/09 00:05:09;;;;;;;71.80;41.90;;;;;;;16.82;33.11;94301.88;5077588;28;20045;-55
2020/12/09 00:07:38;;;;;;;71.22;42.33;;;;;;;16.90;32.87;94301.00;5077475;28;20056;-56
2020/12/09 00:10:06;;;;;;;70.63;43.42;;;;;;;16.76;32.85;94308.47;5075994;28;20056;-55
2020/12/09 00:12:34;;;;;;;68.28;41.17;;;;;;;17.14;32.18;94302.91;5077090;28;20040;-57
2020/12/09 00:15:04;;;;;;;72.50;43.17;;;;;;;16.95;32.51;94314.78;5077424;28;20055;-59
2020/12/09 00:17:31;;;;;;;63.25;37.97;;;;;;;16.61;33.02;94313.22;5077309;28;20049;-54
2020/12/09 00:19:58;;;;;;;63.38;37.75;;;;;;;16.85;32.83;94306.50;5076966;28;20051;-54
2020/12/09 00:31:47;;;;;;;71.90;40.22;;;;;;;10.44;47.43;94308.72;5109369;27;814945;-55
2020/12/09 00:34:14;;;;;;;69.70;38.97;;;;;;;9.30;51.14;94313.41;5113013;28;20046;-61
2020/12/09 00:36:42;;;;;;;65.90;37.35;;;;;;;8.85;52.86;94315.47;5113097;28;20438;-52
2020/12/09 00:39:10;;;;;;;65.45;38.22;;;;;;;8.65;53.86;94303.38;5111336;28;20044;-60
2020/12/09 00:41:37;;;;;;;67.32;37.50;;;;;;;8.83;53.54;94307.88;5112854;28;20047;-58
2020/12/09 00:44:05;;;;;;;66.40;37.75;;;;;;;8.56;54.28;94313.59;5095284;28;20548;-53
2020/12/09 00:46:32;;;;;;;69.40;36.63;;;;;;;8.62;54.76;94294.28;5095166;28;20051;-59
2020/12/09 00:49:04;;;;;;;68.00;38.15;;;;;;;8.62;54.47;94304.72;5112986;28;20082;-58
2020/12/09 00:51:34;;;;;;;67.10;36.72;;;;;;;8.52;54.94;94298.81;5094861;28;20055;-60
2020/12/09 00:54:01;;;;;;;65.45;36.90;;;;;;;8.60;55.07;94309.44;5112865;28;20044;-53
2020/12/09 00:56:32;;;;;;;56.95;34.10;;;;;;;12.67;43.75;94302.66;5094789;28;20077;-54
2020/12/09 00:59:10;;;;;;;61.80;34.78;;;;;;;14.85;37.92;94298.28;5094607;28;20048;-54
2020/12/09 01:01:38;;;;;;;56.83;35.63;;;;;;;15.77;35.80;94293.22;5094635;28;20047;-54
2020/12/09 01:04:08;;;;;;;53.88;34.50;;;;;;;16.53;34.34;94292.97;5094589;28;20070;-53
2020/12/09 01:06:35;;;;;;;56.85;36.90;;;;;;;16.75;33.87;94285.78;5112645;28;20051;-56
2020/12/09 01:09:06;;;;;;;66.72;38.15;;;;;;;16.67;33.75;94284.03;5112551;28;20044;-54
2020/12/09 01:11:33;;;;;;;64.57;39.55;;;;;;;17.07;33.24;94287.63;5112394;28;20035;-56
2020/12/09 01:14:01;;;;;;;61.40;39.33;;;;;;;17.02;33.35;94282.56;5094648;28;20044;-53
2020/12/09 01:16:28;;;;;;;62.20;39.65;;;;;;;16.89;33.43;94280.97;5112480;28;20398;-52
2020/12/09 01:18:55;;;;;;;57.67;37.03;;;;;;;17.20;32.91;94273.34;5112418;28;20056;-57
2020/12/09 01:21:30;;;;;;;65.40;39.58;;;;;;;16.97;33.01;94274.84;5112202;28;20043;-56
2020/12/09 01:23:57;;;;;;;73.93;43.80;;;;;;;16.90;33.07;94282.50;5112334;28;20372;-52
2020/12/09 01:26:24;;;;;;;74.85;44.45;;;;;;;17.07;33.10;94276.28;5112281;28;20052;-59
2020/12/09 01:28:51;;;;;;;71.90;42.63;;;;;;;17.05;32.99;94268.69;5112185;28;20051;-57
2020/12/09 01:31:22;;;;;;;64.90;41.45;;;;;;;17.00;32.91;94268.91;5111761;28;20055;-54
2020/12/09 01:33:49;;;;;;;63.33;39.90;;;;;;;17.06;33.18;94261.53;5112182;28;20056;-57
2020/12/09 01:36:21;;;;;;;71.78;43.20;;;;;;;17.20;32.75;94256.72;5112093;28;20047;-58
2020/12/09 01:38:49;;;;;;;63.00;39.43;;;;;;;17.17;32.69;94255.47;5112017;28;20050;-52
2020/12/09 01:41:22;;;;;;;60.53;37.88;;;;;;;16.99;33.12;94248.88;5108312;28;20282;-53
2020/12/09 01:43:51;;;;;;;63.28;39.40;;;;;;;17.08;32.68;94249.53;5098355;28;20040;-57
2020/12/09 01:46:26;;;;;;;66.95;39.80;;;;;;;16.89;33.41;94263.25;5098328;28;20055;-57
2020/12/09 01:48:54;;;;;;;65.72;39.80;;;;;;;16.57;33.54;94254.25;5080552;28;20466;-55
2020/12/09 01:51:23;;;;;;;62.05;37.80;;;;;;;16.94;33.18;94252.50;5098026;28;20044;-56
2020/12/09 01:53:52;;;;;;;63.28;39.55;;;;;;;16.78;33.34;94237.63;5098290;28;20434;-61
2020/12/09 01:56:19;;;;;;;63.28;38.03;;;;;;;16.79;33.37;94250.50;5063747;28;20345;-55
2020/12/09 01:58:49;;;;;;;62.42;39.58;;;;;;;15.28;35.55;94255.97;5098151;28;20040;-57
2020/12/09 02:01:17;;;;;;;68.95;40.72;;;;;;;12.83;41.20;94254.00;5097611;28;20048;-53
2020/12/09 02:03:47;;;;;;;61.22;38.55;;;;;;;15.11;36.67;94248.16;5098104;28;20059;-58
2020/12/09 02:06:15;;;;;;;64.78;38.25;;;;;;;15.67;35.41;94238.28;5097998;28;20051;-54
2020/12/09 02:08:43;;;;;;;61.72;36.30;;;;;;;16.41;33.99;94239.38;5098185;28;20062;-54
2020/12/09 02:11:10;;;;;;;53.50;35.42;;;;;;;16.60;33.57;94245.69;5097818;28;20055;-58
2020/12/09 02:13:42;;;;;;;62.63;36.38;;;;;;;16.89;32.96;94241.38;5097805;28;20062;-58
2020/12/09 02:16:10;;;;;;;57.53;35.95;;;;;;;16.62;33.64;94246.13;5097798;28;20047;-52
2020/12/09 02:18:37;;;;;;;53.65;36.25;;;;;;;16.68;33.25;94240.69;5096952;28;20040;-56
2020/12/09 02:21:04;;;;;;;55.42;35.58;;;;;;;16.64;33.66;94238.66;5097561;28;20473;-55
2020/12/09 02:23:32;;;;;;;54.95;34.97;;;;;;;16.90;33.04;94237.63;5097591;28;20056;-57
2020/12/09 02:25:59;;;;;;;53.58;34.90;;;;;;;16.88;33.18;94234.56;5097598;28;20051;-54
2020/12/09 02:28:26;;;;;;;51.88;33.55;;;;;;;16.95;32.98;94226.88;5097590;28;20366;-55
2020/12/09 02:30:53;;;;;;;55.03;35.42;;;;;;;16.82;33.20;94246.44;5097264;28;20055;-58
2020/12/09 02:33:20;;;;;;;52.90;34.25;;;;;;;17.12;32.71;94247.78;5097405;28;20343;-56
2020/12/09 02:35:47;;;;;;;51.00;35.15;;;;;;;17.04;32.77;94256.59;5079553;28;20044;-60
2020/12/09 02:38:14;;;;;;;55.20;35.55;;;;;;;16.98;33.10;94247.34;5097262;28;20051;-56
2020/12/09 02:40:42;;;;;;;53.45;34.53;;;;;;;16.80;33.34;94261.81;5097130;28;20048;-60
2020/12/09 02:43:09;;;;;;;56.72;36.00;;;;;;;17.01;32.88;94246.69;5097244;28;20048;-54
2020/12/09 02:45:36;;;;;;;52.00;34.63;;;;;;;16.68;33.32;94249.38;5097239;28;20362;-54
2020/12/09 02:48:03;;;;;;;52.83;33.40;;;;;;;16.77;33.13;94244.78;5097161;28;20177;-58
2020/12/09 02:50:30;;;;;;;52.13;34.97;;;;;;;17.05;32.28;94241.50;5096854;28;20066;-55
2020/12/09 02:52:58;;;;;;;50.47;34.53;;;;;;;16.78;32.81;94242.91;5096348;28;20499;-56
2020/12/09 02:55:25;;;;;;;53.10;34.13;;;;;;;16.92;32.59;94253.94;5096761;28;20044;-54
2020/12/09 02:57:52;;;;;;;56.15;36.67;;;;;;;16.82;32.98;94257.75;5097009;28;20044;-58
2020/12/09 03:00:19;;;;;;;51.45;33.97;;;;;;;16.93;32.67;94260.75;5096609;28;20446;-53
2020/12/09 03:02:46;;;;;;;53.05;35.22;;;;;;;17.09;32.44;94248.44;5096761;28;20056;-56
2020/12/09 03:05:13;;;;;;;52.22;34.22;;;;;;;17.04;32.67;94239.97;5096786;28;20044;-56
2020/12/09 03:07:40;;;;;;;51.65;34.50;;;;;;;17.13;32.44;94254.59;5096822;28;20489;-54
2020/12/09 03:10:07;;;;;;;50.80;34.83;;;;;;;17.08;32.73;94254.81;5096535;28;20447;-54
2020/12/09 03:12:34;;;;;;;50.10;33.80;;;;;;;16.81;32.90;94258.09;5096735;28;20051;-57
2020/12/09 03:15:02;;;;;;;51.33;33.85;;;;;;;16.82;32.84;94260.41;5096661;28;20052;-54
2020/12/09 03:17:30;;;;;;;53.15;34.47;;;;;;;17.07;32.31;94255.91;5096629;28;20052;-52
2020/12/09 03:19:57;;;;;;;51.85;34.95;;;;;;;17.05;32.31;94249.44;5096391;28;20055;-56
2020/12/09 03:22:24;;;;;;;51.47;35.38;;;;;;;17.03;32.35;94257.69;5096467;28;20082;-54
2020/12/09 03:24:51;;;;;;;53.40;37.05;;;;;;;16.79;32.64;94249.72;5096503;28;20052;-57
2020/12/09 03:27:18;;;;;;;50.53;34.22;;;;;;;16.97;32.50;94245.81;5096413;28;20048;-57
2020/12/09 03:29:45;;;;;;;48.25;34.40;;;;;;;16.94;32.58;94246.47;5096230;28;20043;-57
2020/12/09 03:32:12;;;;;;;50.75;35.08;;;;;;;16.94;32.52;94247.22;5096345;28;20063;-56
2020/12/09 03:34:39;;;;;;;52.88;35.63;;;;;;;17.10;32.50;94244.69;5096281;28;20052;-52
2020/12/09 03:37:06;;;;;;;48.75;32.78;;;;;;;16.94;32.93;94227.97;5096224;28;20114;-58
2020/12/09 03:39:33;;;;;;;50.25;33.85;;;;;;;16.79;33.15;94239.16;5095991;28;20047;-54
2020/12/09 03:42:01;;;;;;;47.78;34.03;;;;;;;16.76;32.76;94216.06;5096090;28;20048;-55
2020/12/09 03:44:28;;;;;;;50.45;33.90;;;;;;;16.83;32.81;94227.63;5096065;28;20052;-58
2020/12/09 03:46:59;;;;;;;49.78;33.40;;;;;;;16.98;32.48;94217.53;5096018;28;20458;-51
2020/12/09 03:49:26;;;;;;;51.85;33.65;;;;;;;17.00;32.50;94221.38;5095952;28;20047;-56
2020/12/09 03:51:53;;;;;;;47.15;32.40;;;;;;;17.29;32.38;94216.97;5095889;28;20048;-56
2020/12/09 03:54:20;;;;;;;46.88;33.05;;;;;;;17.93;31.01;94216.22;5096026;28;20359;-54
2020/12/09 03:56:47;;;;;;;45.20;32.63;;;;;;;17.58;31.75;94216.72;5095899;28;20063;-56
2020/12/09 03:59:14;;;;;;;43.33;31.70;;;;;;;17.50;31.92;94214.97;5095711;28;20044;-57
2020/12/09 04:01:42;;;;;;;44.83;31.42;;;;;;;17.50;32.13;94220.25;5095737;28;20048;-56
2020/12/09 04:04:09;;;;;;;40.92;28.85;;;;;;;17.41;32.17;94216.94;5095597;28;20062;-55
2020/12/09 04:06:36;;;;;;;34.40;24.83;;;;;;;17.59;32.21;94207.69;5095768;28;20044;-57
2020/12/09 04:09:04;;;;;;;33.85;24.50;;;;;;;17.80;32.00;94212.84;5077823;28;20370;-54
2020/12/09 04:11:31;;;;;;;31.77;23.60;;;;;;;17.75;32.02;94221.78;5095616;28;20044;-55
2020/12/09 04:13:59;;;;;;;18.63;15.00;;;;;;;18.28;31.23;94217.19;5095789;28;20040;-57
2020/12/09 04:16:26;;;;;;;10.40;9.32;;;;;;;18.66;30.86;94222.00;5077830;28;20369;-54
2020/12/09 04:18:53;;;;;;;9.77;8.60;;;;;;;18.92;30.46;94208.25;5077815;28;20045;-57
2020/12/09 04:21:20;;;;;;;10.95;9.25;;;;;;;19.06;30.21;94213.91;5095403;28;20050;-56
2020/12/09 04:23:47;;;;;;;11.07;8.88;;;;;;;19.00;30.31;94214.50;5095549;28;20047;-56
2020/12/09 04:26:14;;;;;;;10.18;9.05;;;;;;;18.89;30.51;94211.59;5095476;28;20044;-59
2020/12/09 04:28:41;;;;;;;10.43;9.27;;;;;;;18.67;30.65;94206.88;5095499;28;20052;-54
2020/12/09 04:31:08;;;;;;;10.93;8.85;;;;;;;18.89;30.43;94201.00;5095154;28;20036;-51
2020/12/09 04:33:35;;;;;;;9.90;8.63;;;;;;;18.97;30.37;94197.41;5095442;28;20054;-57
2020/12/09 04:36:04;;;;;;;8.80;7.90;;;;;;;19.13;29.92;94188.69;5077678;28;20047;-59
2020/12/09 04:38:31;;;;;;;10.90;8.63;;;;;;;19.08;30.07;94195.00;5095386;28;20044;-55
2020/12/09 04:40:58;;;;;;;10.75;9.32;;;;;;;18.94;30.31;94195.44;5095236;28;20047;-55
2020/12/09 04:43:25;;;;;;;10.15;9.10;;;;;;;19.05;30.20;94185.88;5095219;28;20121;-57
2020/12/09 04:45:52;;;;;;;10.48;9.00;;;;;;;19.16;29.99;94195.94;5095303;28;20051;-56
2020/12/09 04:48:24;;;;;;;9.93;8.77;;;;;;;18.87;30.46;94189.97;5095343;28;20442;-52
2020/12/09 04:50:57;;;;;;;9.63;7.88;;;;;;;19.79;28.93;94190.53;5095048;28;20048;-54
2020/12/09 04:53:26;;;;;;;11.00;8.07;;;;;;;19.09;30.01;94197.31;5095341;28;20044;-60
2020/12/09 04:55:55;;;;;;;10.02;8.63;;;;;;;19.32;29.72;94194.03;5095239;28;20051;-61
2020/12/09 04:58:40;;;;;;;9.57;8.38;;;;;;;19.95;28.88;94205.25;5095258;28;20482;-55
2020/12/09 05:01:12;;;;;;;9.60;7.88;;;;;;;19.12;30.00;94200.38;5095021;28;20036;-58
2020/12/09 05:03:51;;;;;;;10.57;8.67;;;;;;;19.10;30.02;94193.56;5095072;28;20181;-57
2020/12/09 05:06:20;;;;;;;9.55;8.55;;;;;;;18.99;30.31;94189.88;5095188;28;20055;-58
2020/12/09 05:08:56;;;;;;;9.68;8.48;;;;;;;19.13;30.27;94180.72;5095137;28;20052;-58
2020/12/09 05:11:25;;;;;;;10.25;8.82;;;;;;;19.09;30.14;94181.41;5094978;28;20363;-55
2020/12/09 05:13:57;;;;;;;8.85;7.60;;;;;;;19.13;30.15;94194.75;5095076;28;20044;-57
2020/12/09 05:16:26;;;;;;;9.65;7.97;;;;;;;19.01;30.38;94190.31;5095473;28;20386;-60
2020/12/09 05:18:58;;;;;;;8.93;7.68;;;;;;;18.92;30.28;94178.34;5098742;28;20048;-59
2020/12/09 05:21:26;;;;;;;9.10;8.10;;;;;;;18.83;31.10;94173.22;5098915;28;20047;-55
2020/12/09 05:23:58;;;;;;;8.80;7.65;;;;;;;19.10;30.19;94169.72;5098791;28;20043;-59
2020/12/09 05:26:27;;;;;;;8.05;6.93;;;;;;;19.10;30.12;94172.34;5098832;28;20052;-57
2020/12/09 05:29:10;;;;;;;8.80;7.72;;;;;;;19.02;30.36;94161.94;5098592;28;20043;-60
2020/12/09 05:31:39;;;;;;;9.82;7.95;;;;;;;18.85;30.58;94168.34;5098553;28;20056;-55
2020/12/09 05:34:31;;;;;;;8.73;7.35;;;;;;;18.87;30.55;94168.78;5098521;28;20450;-54
2020/12/09 05:37:09;;;;;;;9.35;7.80;;;;;;;18.82;30.54;94169.06;5098535;28;20044;-56
2020/12/09 05:39:51;;;;;;;9.10;8.13;;;;;;;18.65;30.97;94174.69;5080456;28;20048;-58
2020/12/09 05:42:20;;;;;;;9.63;7.68;;;;;;;18.85;30.49;94172.88;5098704;28;20332;-57
2020/12/09 05:44:48;;;;;;;9.55;7.55;;;;;;;18.92;30.55;94176.47;5098440;28;20514;-56
2020/12/09 05:47:17;;;;;;;8.43;7.38;;;;;;;18.75;30.56;94182.13;5098579;28;20055;-56
2020/12/09 05:49:44;;;;;;;8.75;7.45;;;;;;;18.88;30.32;94182.78;5098226;28;20047;-53
2020/12/09 05:52:21;;;;;;;9.43;7.40;;;;;;;19.45;29.57;94179.56;5098458;28;20051;-58
2020/12/09 05:54:50;;;;;;;9.27;7.28;;;;;;;19.11;30.05;94204.91;5097928;28;20048;-51
2020/12/09 05:57:18;;;;;;;9.27;7.20;;;;;;;19.07;30.11;94194.25;5098092;28;20048;-56
2020/12/09 05:59:47;;;;;;;9.05;8.15;;;;;;;18.93;30.34;94201.84;5098067;28;20082;-56
2020/12/09 06:02:28;;;;;;;9.10;7.85;;;;;;;18.65;30.84;94183.38;5098046;28;20078;-54
2020/12/09 06:04:56;;;;;;;10.25;8.20;;;;;;;18.25;31.48;94183.47;5089469;28;20048;-47
2020/12/09 06:07:27;;;;;;;10.25;8.20;;;;;;;18.03;32.09;94184.00;5094711;28;20059;-43
2020/12/09 06:10:06;;;;;;;10.70;8.43;;;;;;;17.98;32.15;94186.91;5097916;28;20047;-72
2020/12/09 06:12:58;;;;;;;10.93;8.40;;;;;;;17.97;32.16;94178.22;5080025;28;20362;-57
2020/12/09 06:15:27;;;;;;;11.98;9.02;;;;;;;17.95;32.22;94185.69;5076659;28;20045;-65
2020/12/09 06:18:15;;;;;;;12.27;9.45;;;;;;;17.58;32.90;94185.75;5095639;28;20059;-59
2020/12/09 06:20:43;;;;;;;12.43;9.32;;;;;;;17.20;33.72;94183.53;5097425;28;20378;-53
2020/12/09 06:23:14;;;;;;;13.80;10.73;;;;;;;17.09;33.98;94185.06;5097591;28;20051;-55
2020/12/09 06:25:43;;;;;;;14.85;11.23;;;;;;;17.21;33.65;94173.72;5076667;28;20060;-58
2020/12/09 06:28:14;;;;;;;14.38;11.02;;;;;;;16.88;34.26;94184.38;5071805;28;20059;-59
2020/12/09 06:30:42;;;;;;;13.10;10.48;;;;;;;17.18;34.04;94183.09;5097202;28;20052;-52
2020/12/09 06:33:09;;;;;;;14.70;10.55;;;;;;;18.23;31.64;94196.28;5097340;28;20497;-53
2020/12/09 06:35:37;;;;;;;13.30;9.98;;;;;;;18.74;30.91;94207.06;5096879;28;20366;-57
2020/12/09 06:38:10;;;;;;;12.40;9.77;;;;;;;18.66;31.03;94194.75;5097117;28;20470;-54
2020/12/09 06:40:39;;;;;;;11.63;9.07;;;;;;;18.61;31.23;94189.69;5097062;28;20048;-58
2020/12/09 06:43:07;;;;;;;11.90;8.93;;;;;;;18.76;30.92;94179.13;5097087;28;20040;-55
2020/12/09 06:45:41;;;;;;;12.50;8.93;;;;;;;18.91;30.67;94190.81;5084502;28;20055;-53
2020/12/09 06:48:13;;;;;;;10.65;8.50;;;;;;;18.88;30.67;94190.75;5076817;28;20049;-54
2020/12/09 06:50:42;;;;;;;11.02;9.18;;;;;;;19.13;30.20;94183.38;5076710;28;20477;-56
2020/12/09 06:53:20;;;;;;;11.52;8.93;;;;;;;18.69;30.75;94202.00;5076780;28;20386;-57
2020/12/09 06:55:49;;;;;;;12.25;8.32;;;;;;;18.63;30.89;94196.19;5076463;28;20040;-55
2020/12/09 06:58:27;;;;;;;10.32;8.07;;;;;;;18.64;30.94;94202.25;5059468;28;20071;-56
2020/12/09 07:01:04;;;;;;;10.15;8.48;;;;;;;18.92;30.28;94202.94;5076302;28;20048;-54
2020/12/09 07:03:37;;;;;;;12.30;9.05;;;;;;;18.72;30.74;94193.38;5076552;28;20069;-55
2020/12/09 07:06:19;;;;;;;11.93;9.15;;;;;;;18.93;30.40;94193.91;5095415;28;20439;-52
2020/12/09 07:08:47;;;;;;;11.57;8.75;;;;;;;18.40;31.16;94187.25;5096710;28;20040;-56
2020/12/09 07:11:14;;;;;;;12.52;8.82;;;;;;;18.61;30.91;94187.03;5096575;28;20047;-57
2020/12/09 07:13:42;;;;;;;13.30;9.00;;;;;;;18.30;31.22;94180.59;5096651;28;20051;-56
2020/12/09 07:16:10;;;;;;;11.85;8.43;;;;;;;18.99;30.30;94173.22;5095201;28;20506;-59
2020/12/09 07:18:37;;;;;;;11.25;8.40;;;;;;;18.74;30.56;94183.25;5075565;28;20472;-57
2020/12/09 07:21:06;;;;;;;12.13;7.97;;;;;;;18.55;30.86;94177.81;5076333;28;20371;-58
2020/12/09 07:23:38;;;;;;;12.32;8.98;;;;;;;18.91;30.34;94180.22;5076056;28;20048;-54
2020/12/09 07:26:05;;;;;;;10.68;8.02;;;;;;;19.04;29.93;94173.75;5076333;28;20048;-57
2020/12/09 07:28:32;;;;;;;11.27;8.40;;;;;;;19.00;29.95;94190.66;5076144;28;20477;-54
2020/12/09 07:31:07;;;;;;;9.65;8.15;;;;;;;19.29;29.59;94184.13;5075876;28;20053;-57
2020/12/09 07:33:34;;;;;;;10.93;9.05;;;;;;;19.12;29.77;94173.91;5075886;28;20068;-61
2020/12/09 07:36:02;;;;;;;9.27;7.55;;;;;;;19.18;29.77;94173.28;5094864;28;20052;-56
2020/12/09 07:38:29;;;;;;;11.57;8.18;;;;;;;18.76;30.22;94184.44;5095878;28;20051;-58
2020/12/09 07:41:00;;;;;;;9.68;8.00;;;;;;;18.81;30.19;94187.94;5095330;28;20335;-57
2020/12/09 07:43:27;;;;;;;9.52;7.93;;;;;;;20.08;28.32;94189.97;5077295;28;20362;-56
2020/12/09 07:46:01;;;;;;;9.48;6.97;;;;;;;19.06;30.13;94195.34;5078210;28;20461;-57
2020/12/09 07:48:30;;;;;;;11.70;8.20;;;;;;;19.07;29.82;94188.19;5095848;28;20059;-56
2020/12/09 07:50:58;;;;;;;12.25;8.02;;;;;;;18.92;30.06;94195.00;5095736;28;20054;-55
2020/12/09 07:53:26;;;;;;;12.32;7.97;;;;;;;19.57;28.88;94200.69;5095989;28;20471;-58
2020/12/09 07:55:53;;;;;;;10.93;7.45;;;;;;;19.16;29.64;94195.94;5095829;28;20058;-56
2020/12/09 07:58:22;;;;;;;10.75;7.80;;;;;;;19.41;29.36;94197.25;5077554;28;20351;-55
2020/12/09 08:00:50;;;;;;;11.00;7.55;;;;;;;19.45;29.19;94182.19;5095748;28;20052;-55
2020/12/09 08:03:22;;;;;;;9.10;6.60;;;;;;;19.01;30.02;94185.03;5095632;28;20078;-56
2020/12/09 08:05:49;;;;;;;9.53;7.67;;;;;;;19.37;29.38;94196.41;5077949;28;20044;-54
2020/12/09 08:08:27;;;;;;;9.10;7.20;;;;;;;19.17;29.92;94192.16;5075141;28;20279;-56
2020/12/09 08:11:04;;;;;;;9.45;7.05;;;;;;;19.16;30.09;94190.63;5074729;28;20359;-52
2020/12/09 08:13:31;;;;;;;10.50;7.63;;;;;;;18.89;30.49;94187.75;5075330;28;20075;-57
2020/12/09 08:16:06;;;;;;;9.77;7.25;;;;;;;19.11;30.08;94183.72;5075381;28;20051;-53
2020/12/09 08:18:34;;;;;;;9.43;7.47;;;;;;;18.93;30.39;94193.91;5075031;28;20355;-55
2020/12/09 08:21:01;;;;;;;13.20;7.90;;;;;;;19.12;30.11;94201.16;5074785;28;20056;-54
2020/12/09 08:23:46;;;;;;;11.00;7.72;;;;;;;19.15;30.43;94205.75;5075271;28;20044;-57
2020/12/09 08:26:29;;;;;;;10.20;7.25;;;;;;;19.78;29.22;94205.69;5075174;28;20044;-55
2020/12/09 08:28:56;;;;;;;;;;;;;;;19.04;30.36;94210.81;5074431;28;20059;-54
2020/12/09 08:31:23;;;;;;;9.60;7.50;;;;;;;19.40;29.74;94216.94;5074895;28;19952;-54
2020/12/09 08:33:51;;;;;;;8.80;7.57;;;;;;;18.93;30.37;94204.50;5076319;28;20064;-57
2020/12/09 08:36:20;;;;;;;9.55;8.05;;;;;;;19.04;30.55;94205.53;5095364;28;20447;-56
2020/12/09 08:38:50;;;;;;;9.73;7.35;;;;;;;19.54;29.50;94205.91;5095377;28;20083;-56
2020/12/09 08:41:24;;;;;;;9.50;7.65;;;;;;;19.26;30.21;94195.44;5094977;28;20075;-58
2020/12/09 08:43:55;;;;;;;8.50;7.38;;;;;;;19.15;29.99;94199.69;5095332;28;20048;-54
2020/12/09 08:46:24;;;;;;;7.90;6.50;;;;;;;19.15;30.16;94202.34;5095310;28;20048;-52
2020/12/09 08:48:52;;;;;;;9.18;7.60;;;;;;;19.04;30.53;94205.53;5095082;28;20079;-54
2020/12/09 08:51:29;;;;;;;8.60;6.95;;;;;;;19.13;30.07;94197.41;5095342;28;20048;-55
2020/12/09 08:53:57;;;;;;;9.23;7.20;;;;;;;19.04;30.35;94202.88;5099358;28;20044;-58
2020/12/09 08:56:29;;;;;;;8.18;7.22;;;;;;;18.77;30.74;94201.84;5099179;28;20074;-54
2020/12/09 08:58:57;;;;;;;8.32;6.90;;;;;;;19.19;30.28;94195.25;5098992;28;20052;-56
2020/12/09 09:01:24;;;;;;;8.65;7.38;;;;;;;19.24;30.04;94187.78;5098810;28;20052;-54
2020/12/09 09:03:57;;;;;;;8.00;6.72;;;;;;;18.98;30.43;94185.69;5097853;28;20052;-57
2020/12/09 09:06:24;;;;;;;10.50;7.00;;;;;;;18.98;30.54;94180.38;5078902;28;20482;-54
2020/12/09 09:08:52;;;;;;;8.35;7.50;;;;;;;19.39;29.77;94188.88;5078674;28;20055;-60
2020/12/09 09:11:23;;;;;;;8.32;7.00;;;;;;;16.86;34.63;94165.47;5078400;28;20055;-55
2020/12/09 09:16:20;;;;;;;12.88;7.82;;;;;;;13.79;41.10;94179.63;5079827;28;20360;-54
2020/12/09 10:29:56;;;;;;;15.07;9.73;;;;;;;10.29;52.92;94075.63;5092869;28;20356;-55
2020/12/09 10:32:25;;;;;;;14.85;9.18;;;;;;;10.36;52.45;94073.41;5092886;28;20055;-54
2020/12/09 10:34:52;;;;;;;15.00;8.82;;;;;;;10.80;51.21;94064.94;5088897;28;20071;-57
2020/12/09 10:37:19;;;;;;;13.98;7.70;;;;;;;10.91;50.71;94071.47;5086634;28;20401;-58
2020/12/09 10:39:52;;;;;;;14.55;8.38;;;;;;;10.89;50.90;94062.38;5092517;28;20473;-60
2020/12/09 10:42:22;;;;;;;13.32;8.18;;;;;;;10.95;49.84;94056.78;5091747;28;20052;-60
2020/12/09 10:44:50;;;;;;;10.80;7.32;;;;;;;11.00;49.43;94058.50;5092473;28;20062;-58
2020/12/09 11:04:59;;;;;;;10.20;7.43;;;;;;;10.76;50.37;94054.28;5112906;27;20354;-56
2020/12/09 11:07:26;;;;;;;9.43;6.22;;;;;;;14.81;40.18;94045.47;5101493;28;20044;-54
2020/12/09 11:10:03;;;;;;;10.23;6.38;;;;;;;17.78;33.73;94036.03;5091849;28;20439;-57
2020/12/09 11:12:31;;;;;;;10.02;6.25;;;;;;;18.52;32.04;94027.63;5092813;28;20542;-55
2020/12/09 11:14:59;;;;;;;11.45;7.20;;;;;;;18.24;32.23;94025.84;5106653;28;20048;-57
2020/12/09 11:17:27;;;;;;;9.55;6.68;;;;;;;18.97;30.87;94024.44;5108512;28;20052;-56
2020/12/09 11:19:55;;;;;;;8.80;6.80;;;;;;;19.41;30.23;94032.94;5092747;28;20055;-55
2020/12/09 11:22:22;;;;;;;8.93;6.68;;;;;;;19.80;29.39;94030.28;5092876;28;20048;-58
2020/12/09 11:24:50;;;;;;;8.60;6.30;;;;;;;20.09;28.98;94020.94;5092401;28;20044;-59
2020/12/09 11:27:17;;;;;;;8.07;6.40;;;;;;;19.70;29.64;94018.34;5120672;28;20130;-58
2020/12/09 11:29:44;;;;;;;6.90;5.82;;;;;;;19.74;29.46;94024.47;5112684;28;20051;-60
2020/12/09 11:32:15;;;;;;;9.73;6.30;;;;;;;20.01;29.25;94017.38;5111690;28;20040;-57
2020/12/09 11:34:44;;;;;;;9.68;6.35;;;;;;;19.37;29.94;94010.88;5112388;28;20047;-58
2020/12/09 11:37:12;;;;;;;53.63;40.63;;;;;;;19.72;29.29;94018.75;5100674;28;20055;-56
2020/12/09 11:39:39;;;;;;;48.83;37.08;;;;;;;20.22;28.55;94009.75;5092110;28;20569;-57
2020/12/09 11:42:10;;;;;;;8.93;7.60;;;;;;;20.58;27.79;94015.66;5092248;28;20040;-57
2020/12/09 11:44:42;;;;;;;6.40;5.18;;;;;;;20.49;27.76;93988.59;5092137;28;20048;-57
2020/12/09 11:47:09;;;;;;;7.40;5.35;;;;;;;20.56;27.00;93989.47;5102718;28;20066;-56
2020/12/09 11:49:40;;;;;;;6.82;5.13;;;;;;;19.95;28.58;93981.66;5111174;28;20044;-56
2020/12/09 11:52:08;;;;;;;6.55;4.63;;;;;;;19.80;28.58;93990.50;5112373;28;20358;-58
2020/12/09 11:54:35;;;;;;;5.97;4.85;;;;;;;20.29;27.80;93985.97;5111196;28;20036;-60
2020/12/09 11:57:03;;;;;;;5.10;4.47;;;;;;;20.35;27.53;93977.75;5111823;28;20078;-58
2020/12/09 11:59:30;;;;;;;6.00;3.90;;;;;;;20.58;26.95;93991.75;5111104;28;20047;-56
2020/12/09 12:01:58;;;;;;;5.15;4.18;;;;;;;20.29;27.30;93996.59;5112159;28;20442;-57
2020/12/09 12:04:26;;;;;;;4.90;4.13;;;;;;;20.17;27.75;93991.50;5111788;28;20056;-58
2020/12/09 12:06:53;;;;;;;5.57;4.50;;;;;;;20.36;27.40;93979.28;5111058;28;20493;-54
2020/12/09 12:09:20;;;;;;;5.60;4.22;;;;;;;20.26;27.49;93978.72;5111867;28;20374;-59
2020/12/09 12:11:47;;;;;;;4.80;4.00;;;;;;;19.59;28.77;93969.66;5111952;28;20048;-57
2020/12/09 12:14:14;;;;;;;4.13;3.72;;;;;;;19.70;28.41;93974.03;5110365;28;20422;-56
2020/12/09 12:16:41;;;;;;;5.05;3.83;;;;;;;19.77;28.14;93969.97;5097811;28;20443;-56
2020/12/09 12:19:09;;;;;;;4.28;3.80;;;;;;;19.87;28.14;93964.84;5098031;28;20058;-56
2020/12/09 12:21:42;;;;;;;4.80;4.25;;;;;;;19.71;28.50;93966.84;5098270;28;20047;-57
2020/12/09 12:24:09;;;;;;;4.93;4.13;;;;;;;19.79;28.44;93959.78;5097153;28;20439;-55
2020/12/09 12:26:36;;;;;;;6.28;4.40;;;;;;;19.84;28.43;93967.44;5097788;28;20044;-58
2020/12/09 12:29:03;;;;;;;4.68;3.65;;;;;;;19.53;28.42;93966.56;5097848;28;20044;-55
2020/12/09 12:31:30;;;;;;;4.68;3.80;;;;;;;19.54;28.57;93957.47;5097986;28;20048;-59
2020/12/09 12:33:57;;;;;;;4.38;3.45;;;;;;;19.36;28.89;93951.06;5097728;28;20052;-56
2020/12/09 12:36:24;;;;;;;5.35;4.45;;;;;;;19.70;28.36;93960.00;5094037;28;20055;-55
2020/12/09 12:38:51;;;;;;;4.43;3.75;;;;;;;19.86;28.23;93962.56;5077564;28;20048;-56
2020/12/09 12:41:18;;;;;;;5.68;3.83;;;;;;;20.03;27.84;93946.16;5077606;28;20048;-55
2020/12/09 12:43:46;;;;;;;6.30;3.72;;;;;;;19.99;27.93;93946.09;5077521;28;20083;-57
2020/12/09 12:46:13;;;;;;;5.88;4.47;;;;;;;19.91;28.24;93944.47;5077289;28;20079;-57
2020/12/09 12:48:40;;;;;;;6.85;4.50;;;;;;;20.31;27.59;93943.94;5077445;28;20391;-54
2020/12/09 12:51:07;;;;;;;5.05;4.30;;;;;;;19.80;28.19;93932.91;5077394;28;20450;-57
2020/12/09 12:53:34;;;;;;;4.55;4.03;;;;;;;19.70;28.33;93944.09;5077416;28;20045;-58
2020/12/09 12:56:03;;;;;;;5.13;3.90;;;;;;;19.89;28.15;93940.63;5077361;28;20331;-58
2020/12/09 12:58:31;;;;;;;5.60;3.70;;;;;;;20.09;27.85;93950.06;5077167;28;20048;-57
2020/12/09 13:00:58;;;;;;;4.45;3.78;;;;;;;20.06;27.77;93964.03;5077266;28;20055;-56
2020/12/09 13:03:25;;;;;;;4.88;3.80;;;;;;;19.67;28.41;93950.88;5077022;28;20064;-58
2020/12/09 13:05:53;;;;;;;5.50;4.57;;;;;;;20.07;27.93;93962.91;5095076;28;20052;-56
2020/12/09 13:08:20;;;;;;;5.32;4.57;;;;;;;20.06;27.83;93956.06;5078160;28;20052;-54
2020/12/09 13:10:47;;;;;;;7.78;5.07;;;;;;;19.73;28.52;93956.66;5077118;28;20045;-54
2020/12/09 13:13:14;;;;;;;5.75;4.63;;;;;;;19.25;29.20;93960.66;5076943;28;20386;-60
2020/12/09 13:15:43;;;;;;;7.00;5.13;;;;;;;19.53;28.77;93961.25;5077315;28;20044;-55